sensor_id;sensor_type;location;lat;lon;timestamp;temperature;humidity
19878;DHT22;10101;52.204;9.910;2022-08-21T00:00:06;15.80;99.90
19878;DHT22;10101;52.204;9.910;2022-08-21T00:02:35;15.70;99.90
19878;DHT22;10101;52.204;9.910;2022-08-21T00:05:02;15.70;99.90
19878;DHT22;10101;52.204;9.910;2022-08-21T00:07:30;15.50;99.90
19878;DHT22;10101;52.204;9.910;2022-08-21T00:09:57;15.70;99.90
19878;DHT22;10101;52.204;9.910;2022-08-21T00:12:24;15.80;99.90
19878;DHT22;10101;52.204;9.910;2022-08-21T00:14:51;15.70;99.90
19878;DHT22;10101;52.204;9.910;2022-08-21T00:17:17;15.60;99.90
19878;DHT22;10101;52.204;9.910;2022-08-21T00:19:45;15.60;99.90
19878;DHT22;10101;52.204;9.910;2022-08-21T00:22:15;15.60;99.90
19878;DHT22;10101;52.204;9.910;2022-08-21T00:24:42;15.70;99.90
19878;DHT22;10101;52.204;9.910;2022-08-21T00:27:09;15.70;99.90
19878;DHT22;10101;52.204;9.910;2022-08-21T00:29:36;15.60;99.90
19878;DHT22;10101;52.204;9.910;2022-08-21T00:32:03;15.50;99.90
19878;DHT22;10101;52.204;9.910;2022-08-21T00:34:30;15.50;99.90
19878;DHT22;10101;52.204;9.910;2022-08-21T00:36:58;15.30;99.90
19878;DHT22;10101;52.204;9.910;2022-08-21T00:39:25;15.40;99.90
19878;DHT22;10101;52.204;9.910;2022-08-21T00:41:52;15.50;99.90
19878;DHT22;10101;52.204;9.910;2022-08-21T00:44:19;15.40;99.90
19878;DHT22;10101;52.204;9.910;2022-08-21T00:46:46;15.30;99.90
19878;DHT22;10101;52.204;9.910;2022-08-21T00:49:13;15.20;99.90
19878;DHT22;10101;52.204;9.910;2022-08-21T00:51:44;15.10;99.90
19878;DHT22;10101;52.204;9.910;2022-08-21T00:54:13;15.10;99.90
19878;DHT22;10101;52.204;9.910;2022-08-21T00:56:41;15.10;99.90
19878;DHT22;10101;52.204;9.910;2022-08-21T00:59:08;15.10;99.90
19878;DHT22;10101;52.204;9.910;2022-08-21T01:01:35;15.10;99.90
19878;DHT22;10101;52.204;9.910;2022-08-21T01:04:02;15.00;99.90
19878;DHT22;10101;52.204;9.910;2022-08-21T01:06:29;15.00;99.90
19878;DHT22;10101;52.204;9.910;2022-08-21T01:08:56;14.80;99.90
19878;DHT22;10101;52.204;9.910;2022-08-21T01:11:24;14.90;99.90
19878;DHT22;10101;52.204;9.910;2022-08-21T01:13:51;14.80;99.90
19878;DHT22;10101;52.204;9.910;2022-08-21T01:16:20;14.60;99.90
19878;DHT22;10101;52.204;9.910;2022-08-21T01:18:48;14.50;99.90
19878;DHT22;10101;52.204;9.910;2022-08-21T01:21:19;14.40;99.90
19878;DHT22;10101;52.204;9.910;2022-08-21T01:23:49;14.50;99.90
19878;DHT22;10101;52.204;9.910;2022-08-21T01:26:18;14.50;99.90
19878;DHT22;10101;52.204;9.910;2022-08-21T01:28:49;14.40;99.90
19878;DHT22;10101;52.204;9.910;2022-08-21T01:31:19;14.30;99.90
19878;DHT22;10101;52.204;9.910;2022-08-21T01:33:48;14.30;99.90
19878;DHT22;10101;52.204;9.910;2022-08-21T01:36:17;14.30;99.90
19878;DHT22;10101;52.204;9.910;2022-08-21T01:38:43;14.30;99.90
19878;DHT22;10101;52.204;9.910;2022-08-21T01:41:10;14.30;99.90
19878;DHT22;10101;52.204;9.910;2022-08-21T01:43:37;14.20;99.90
19878;DHT22;10101;52.204;9.910;2022-08-21T01:46:04;14.20;99.90
19878;DHT22;10101;52.204;9.910;2022-08-21T01:48:31;14.20;99.90
19878;DHT22;10101;52.204;9.910;2022-08-21T01:50:58;14.30;99.90
19878;DHT22;10101;52.204;9.910;2022-08-21T01:53:27;14.20;99.90
19878;DHT22;10101;52.204;9.910;2022-08-21T01:55:54;14.20;99.90
19878;DHT22;10101;52.204;9.910;2022-08-21T01:58:21;14.10;99.90
19878;DHT22;10101;52.204;9.910;2022-08-21T02:00:47;14.10;99.90
19878;DHT22;10101;52.204;9.910;2022-08-21T02:03:14;14.20;99.90
19878;DHT22;10101;52.204;9.910;2022-08-21T02:05:41;14.30;99.90
19878;DHT22;10101;52.204;9.910;2022-08-21T02:08:08;14.30;99.90
19878;DHT22;10101;52.204;9.910;2022-08-21T02:10:36;14.20;99.90
19878;DHT22;10101;52.204;9.910;2022-08-21T02:13:03;14.20;99.90
19878;DHT22;10101;52.204;9.910;2022-08-21T02:15:30;14.20;99.90
19878;DHT22;10101;52.204;9.910;2022-08-21T02:18:00;14.30;99.90
19878;DHT22;10101;52.204;9.910;2022-08-21T02:20:30;14.20;99.90
19878;DHT22;10101;52.204;9.910;2022-08-21T02:22:57;14.30;99.90
19878;DHT22;10101;52.204;9.910;2022-08-21T02:25:25;14.40;99.90
19878;DHT22;10101;52.204;9.910;2022-08-21T02:27:54;14.40;99.90
19878;DHT22;10101;52.204;9.910;2022-08-21T02:30:23;14.30;99.90
19878;DHT22;10101;52.204;9.910;2022-08-21T02:32:50;14.30;99.90
19878;DHT22;10101;52.204;9.910;2022-08-21T02:35:18;14.30;99.90
19878;DHT22;10101;52.204;9.910;2022-08-21T02:37:48;14.40;99.90
19878;DHT22;10101;52.204;9.910;2022-08-21T02:40:16;14.40;99.90
19878;DHT22;10101;52.204;9.910;2022-08-21T02:42:43;14.40;99.90
19878;DHT22;10101;52.204;9.910;2022-08-21T02:45:12;14.40;99.90
19878;DHT22;10101;52.204;9.910;2022-08-21T02:47:40;14.40;99.90
19878;DHT22;10101;52.204;9.910;2022-08-21T02:50:07;14.30;99.90
19878;DHT22;10101;52.204;9.910;2022-08-21T02:52:34;14.10;99.90
19878;DHT22;10101;52.204;9.910;2022-08-21T02:55:02;14.10;99.90
19878;DHT22;10101;52.204;9.910;2022-08-21T02:57:29;14.10;99.90
19878;DHT22;10101;52.204;9.910;2022-08-21T02:59:57;14.00;99.90
19878;DHT22;10101;52.204;9.910;2022-08-21T03:02:26;13.80;99.90
19878;DHT22;10101;52.204;9.910;2022-08-21T03:04:53;13.80;99.90
19878;DHT22;10101;52.204;9.910;2022-08-21T03:07:20;13.70;99.90
19878;DHT22;10101;52.204;9.910;2022-08-21T03:09:47;13.70;99.90
19878;DHT22;10101;52.204;9.910;2022-08-21T03:12:13;13.60;99.90
19878;DHT22;10101;52.204;9.910;2022-08-21T03:14:40;13.60;99.90
19878;DHT22;10101;52.204;9.910;2022-08-21T03:17:07;13.60;99.90
19878;DHT22;10101;52.204;9.910;2022-08-21T03:19:35;13.60;99.90
19878;DHT22;10101;52.204;9.910;2022-08-21T03:22:02;13.50;99.90
19878;DHT22;10101;52.204;9.910;2022-08-21T03:24:29;13.50;99.90
19878;DHT22;10101;52.204;9.910;2022-08-21T03:26:56;13.40;99.90
19878;DHT22;10101;52.204;9.910;2022-08-21T03:29:23;13.40;99.90
19878;DHT22;10101;52.204;9.910;2022-08-21T03:31:50;13.50;99.90
19878;DHT22;10101;52.204;9.910;2022-08-21T03:34:19;13.50;99.90
19878;DHT22;10101;52.204;9.910;2022-08-21T03:36:47;13.50;99.90
19878;DHT22;10101;52.204;9.910;2022-08-21T03:39:14;13.50;99.90
19878;DHT22;10101;52.204;9.910;2022-08-21T03:41:41;13.40;99.90
19878;DHT22;10101;52.204;9.910;2022-08-21T03:44:08;13.30;99.90
19878;DHT22;10101;52.204;9.910;2022-08-21T03:46:35;13.30;99.90
19878;DHT22;10101;52.204;9.910;2022-08-21T03:49:02;13.30;99.90
19878;DHT22;10101;52.204;9.910;2022-08-21T03:51:29;13.30;99.90
19878;DHT22;10101;52.204;9.910;2022-08-21T03:53:59;13.40;99.90
19878;DHT22;10101;52.204;9.910;2022-08-21T03:56:25;13.50;99.90
19878;DHT22;10101;52.204;9.910;2022-08-21T03:58:52;13.50;99.90
19878;DHT22;10101;52.204;9.910;2022-08-21T04:01:19;13.50;99.90
19878;DHT22;10101;52.204;9.910;2022-08-21T04:03:46;13.50;99.90
19878;DHT22;10101;52.204;9.910;2022-08-21T04:06:13;13.50;99.90
19878;DHT22;10101;52.204;9.910;2022-08-21T04:08:39;13.50;99.90
19878;DHT22;10101;52.204;9.910;2022-08-21T04:11:09;13.40;99.90
19878;DHT22;10101;52.204;9.910;2022-08-21T04:13:37;13.20;99.90
19878;DHT22;10101;52.204;9.910;2022-08-21T04:16:04;13.50;99.90
19878;DHT22;10101;52.204;9.910;2022-08-21T04:18:31;13.50;99.90
19878;DHT22;10101;52.204;9.910;2022-08-21T04:20:59;13.40;99.90
19878;DHT22;10101;52.204;9.910;2022-08-21T04:23:28;13.40;99.90
19878;DHT22;10101;52.204;9.910;2022-08-21T04:25:56;13.50;99.90
19878;DHT22;10101;52.204;9.910;2022-08-21T04:28:26;13.50;99.90
19878;DHT22;10101;52.204;9.910;2022-08-21T04:30:53;13.50;99.90
19878;DHT22;10101;52.204;9.910;2022-08-21T04:33:21;13.60;99.90
19878;DHT22;10101;52.204;9.910;2022-08-21T04:35:48;13.80;99.90
19878;DHT22;10101;52.204;9.910;2022-08-21T04:38:15;13.60;99.90
19878;DHT22;10101;52.204;9.910;2022-08-21T04:40:42;13.70;99.90
19878;DHT22;10101;52.204;9.910;2022-08-21T04:43:10;13.90;99.90
19878;DHT22;10101;52.204;9.910;2022-08-21T04:45:40;14.00;99.90
19878;DHT22;10101;52.204;9.910;2022-08-21T04:48:10;14.10;99.90
19878;DHT22;10101;52.204;9.910;2022-08-21T04:50:40;14.10;99.90
19878;DHT22;10101;52.204;9.910;2022-08-21T04:53:13;14.10;99.90
19878;DHT22;10101;52.204;9.910;2022-08-21T04:55:42;14.00;99.90
19878;DHT22;10101;52.204;9.910;2022-08-21T04:58:11;14.30;99.90
19878;DHT22;10101;52.204;9.910;2022-08-21T05:00:40;14.30;99.90
19878;DHT22;10101;52.204;9.910;2022-08-21T05:03:09;14.50;99.90
19878;DHT22;10101;52.204;9.910;2022-08-21T05:05:36;14.50;99.90
19878;DHT22;10101;52.204;9.910;2022-08-21T05:08:03;14.40;99.90
19878;DHT22;10101;52.204;9.910;2022-08-21T05:10:31;14.30;99.90
19878;DHT22;10101;52.204;9.910;2022-08-21T05:12:59;14.40;99.90
19878;DHT22;10101;52.204;9.910;2022-08-21T05:15:26;14.60;99.90
19878;DHT22;10101;52.204;9.910;2022-08-21T05:17:55;14.60;99.90
19878;DHT22;10101;52.204;9.910;2022-08-21T05:20:21;14.70;99.90
19878;DHT22;10101;52.204;9.910;2022-08-21T05:22:49;14.80;99.90
19878;DHT22;10101;52.204;9.910;2022-08-21T05:25:16;15.00;99.90
19878;DHT22;10101;52.204;9.910;2022-08-21T05:27:43;15.10;99.90
19878;DHT22;10101;52.204;9.910;2022-08-21T05:30:10;15.20;99.90
19878;DHT22;10101;52.204;9.910;2022-08-21T05:32:37;15.30;99.90
19878;DHT22;10101;52.204;9.910;2022-08-21T05:35:07;15.40;99.90
19878;DHT22;10101;52.204;9.910;2022-08-21T05:37:34;15.40;99.90
19878;DHT22;10101;52.204;9.910;2022-08-21T05:40:02;15.10;99.90
19878;DHT22;10101;52.204;9.910;2022-08-21T05:42:29;15.00;99.90
19878;DHT22;10101;52.204;9.910;2022-08-21T05:44:56;15.30;99.90
19878;DHT22;10101;52.204;9.910;2022-08-21T05:47:22;15.50;99.90
19878;DHT22;10101;52.204;9.910;2022-08-21T05:49:49;15.40;99.90
19878;DHT22;10101;52.204;9.910;2022-08-21T05:52:20;15.50;99.90
19878;DHT22;10101;52.204;9.910;2022-08-21T05:54:48;15.60;99.90
19878;DHT22;10101;52.204;9.910;2022-08-21T05:57:14;15.50;99.90
19878;DHT22;10101;52.204;9.910;2022-08-21T05:59:41;15.50;99.90
19878;DHT22;10101;52.204;9.910;2022-08-21T06:02:08;15.60;99.90
19878;DHT22;10101;52.204;9.910;2022-08-21T06:04:36;15.80;99.90
19878;DHT22;10101;52.204;9.910;2022-08-21T06:07:03;16.10;99.90
19878;DHT22;10101;52.204;9.910;2022-08-21T06:09:32;16.10;99.90
19878;DHT22;10101;52.204;9.910;2022-08-21T06:12:03;16.30;99.90
19878;DHT22;10101;52.204;9.910;2022-08-21T06:14:30;16.60;99.90
19878;DHT22;10101;52.204;9.910;2022-08-21T06:17:02;16.70;99.90
19878;DHT22;10101;52.204;9.910;2022-08-21T06:19:28;16.70;99.90
19878;DHT22;10101;52.204;9.910;2022-08-21T06:21:55;16.80;99.90
19878;DHT22;10101;52.204;9.910;2022-08-21T06:24:22;16.80;99.90
19878;DHT22;10101;52.204;9.910;2022-08-21T06:26:50;17.10;99.90
19878;DHT22;10101;52.204;9.910;2022-08-21T06:29:17;17.20;99.90
19878;DHT22;10101;52.204;9.910;2022-08-21T06:31:45;17.10;99.90
19878;DHT22;10101;52.204;9.910;2022-08-21T06:34:13;17.20;99.90
19878;DHT22;10101;52.204;9.910;2022-08-21T06:36:40;17.20;99.90
19878;DHT22;10101;52.204;9.910;2022-08-21T06:39:06;17.10;99.90
19878;DHT22;10101;52.204;9.910;2022-08-21T06:41:34;17.10;99.90
19878;DHT22;10101;52.204;9.910;2022-08-21T06:44:02;17.30;99.90
19878;DHT22;10101;52.204;9.910;2022-08-21T06:46:30;17.30;99.90
19878;DHT22;10101;52.204;9.910;2022-08-21T06:48:57;17.30;99.90
19878;DHT22;10101;52.204;9.910;2022-08-21T06:51:24;17.30;99.90
19878;DHT22;10101;52.204;9.910;2022-08-21T06:53:51;17.30;99.90
19878;DHT22;10101;52.204;9.910;2022-08-21T06:56:18;17.40;99.90
19878;DHT22;10101;52.204;9.910;2022-08-21T06:58:46;17.50;99.90
19878;DHT22;10101;52.204;9.910;2022-08-21T07:01:14;17.60;99.90
19878;DHT22;10101;52.204;9.910;2022-08-21T07:03:42;17.50;99.90
19878;DHT22;10101;52.204;9.910;2022-08-21T07:06:10;17.60;99.90
19878;DHT22;10101;52.204;9.910;2022-08-21T07:08:38;17.60;99.90
19878;DHT22;10101;52.204;9.910;2022-08-21T07:11:10;17.70;99.90
19878;DHT22;10101;52.204;9.910;2022-08-21T07:13:37;17.90;99.90
19878;DHT22;10101;52.204;9.910;2022-08-21T07:16:05;18.10;99.90
19878;DHT22;10101;52.204;9.910;2022-08-21T07:18:33;18.20;99.90
19878;DHT22;10101;52.204;9.910;2022-08-21T07:21:01;18.30;99.90
19878;DHT22;10101;52.204;9.910;2022-08-21T07:23:33;18.40;99.90
19878;DHT22;10101;52.204;9.910;2022-08-21T07:26:00;18.40;99.90
19878;DHT22;10101;52.204;9.910;2022-08-21T07:28:28;18.30;99.90
19878;DHT22;10101;52.204;9.910;2022-08-21T07:30:57;18.40;99.90
19878;DHT22;10101;52.204;9.910;2022-08-21T07:33:26;18.60;99.90
19878;DHT22;10101;52.204;9.910;2022-08-21T07:35:55;18.60;99.90
19878;DHT22;10101;52.204;9.910;2022-08-21T07:38:22;18.80;99.90
19878;DHT22;10101;52.204;9.910;2022-08-21T07:40:51;18.90;99.90
19878;DHT22;10101;52.204;9.910;2022-08-21T07:43:18;19.10;99.90
19878;DHT22;10101;52.204;9.910;2022-08-21T07:45:47;19.30;99.90
19878;DHT22;10101;52.204;9.910;2022-08-21T07:48:15;19.30;99.90
19878;DHT22;10101;52.204;9.910;2022-08-21T07:50:43;19.50;99.90
19878;DHT22;10101;52.204;9.910;2022-08-21T07:53:11;19.50;99.90
19878;DHT22;10101;52.204;9.910;2022-08-21T07:55:38;19.70;99.90
19878;DHT22;10101;52.204;9.910;2022-08-21T07:58:05;19.80;99.90
19878;DHT22;10101;52.204;9.910;2022-08-21T08:00:32;19.90;99.90
19878;DHT22;10101;52.204;9.910;2022-08-21T08:03:00;20.00;99.90
19878;DHT22;10101;52.204;9.910;2022-08-21T08:05:29;20.00;99.90
19878;DHT22;10101;52.204;9.910;2022-08-21T08:07:57;20.00;1.00
19878;DHT22;10101;52.204;9.910;2022-08-21T08:10:26;19.80;1.00
19878;DHT22;10101;52.204;9.910;2022-08-21T08:12:53;19.80;1.00
19878;DHT22;10101;52.204;9.910;2022-08-21T08:15:22;19.90;1.00
19878;DHT22;10101;52.204;9.910;2022-08-21T08:17:49;19.90;99.90
19878;DHT22;10101;52.204;9.910;2022-08-21T08:20:17;20.10;99.90
19878;DHT22;10101;52.204;9.910;2022-08-21T08:22:46;20.20;1.00
19878;DHT22;10101;52.204;9.910;2022-08-21T08:25:14;20.20;24.00
19878;DHT22;10101;52.204;9.910;2022-08-21T08:27:43;20.40;1.00
19878;DHT22;10101;52.204;9.910;2022-08-21T08:30:11;20.40;1.00
19878;DHT22;10101;52.204;9.910;2022-08-21T08:32:39;20.60;99.90
19878;DHT22;10101;52.204;9.910;2022-08-21T08:35:07;20.50;9.80
19878;DHT22;10101;52.204;9.910;2022-08-21T08:37:35;20.60;1.00
19878;DHT22;10101;52.204;9.910;2022-08-21T08:40:04;20.80;1.00
19878;DHT22;10101;52.204;9.910;2022-08-21T08:42:33;20.90;1.00
19878;DHT22;10101;52.204;9.910;2022-08-21T08:45:04;20.90;99.90
19878;DHT22;10101;52.204;9.910;2022-08-21T08:47:36;21.10;99.90
19878;DHT22;10101;52.204;9.910;2022-08-21T08:50:06;21.20;1.00
19878;DHT22;10101;52.204;9.910;2022-08-21T08:52:36;21.30;1.00
19878;DHT22;10101;52.204;9.910;2022-08-21T08:55:09;21.10;1.00
19878;DHT22;10101;52.204;9.910;2022-08-21T08:57:41;21.30;99.90
19878;DHT22;10101;52.204;9.910;2022-08-21T09:00:14;21.40;99.90
19878;DHT22;10101;52.204;9.910;2022-08-21T09:02:43;21.50;57.90
19878;DHT22;10101;52.204;9.910;2022-08-21T09:05:24;21.60;1.00
19878;DHT22;10101;52.204;9.910;2022-08-21T09:08:14;21.70;99.90
19878;DHT22;10101;52.204;9.910;2022-08-21T09:10:56;21.80;76.50
19878;DHT22;10101;52.204;9.910;2022-08-21T09:13:33;22.00;1.00
19878;DHT22;10101;52.204;9.910;2022-08-21T09:16:11;21.90;1.00
19878;DHT22;10101;52.204;9.910;2022-08-21T09:18:46;22.00;99.90
19878;DHT22;10101;52.204;9.910;2022-08-21T09:21:22;22.30;99.90
19878;DHT22;10101;52.204;9.910;2022-08-21T09:23:57;22.10;99.90
19878;DHT22;10101;52.204;9.910;2022-08-21T09:26:29;22.10;1.00
19878;DHT22;10101;52.204;9.910;2022-08-21T09:28:59;22.20;1.00
19878;DHT22;10101;52.204;9.910;2022-08-21T09:31:29;22.40;1.00
19878;DHT22;10101;52.204;9.910;2022-08-21T09:33:58;22.70;1.00
19878;DHT22;10101;52.204;9.910;2022-08-21T09:36:33;22.70;1.00
19878;DHT22;10101;52.204;9.910;2022-08-21T09:39:00;22.70;1.00
19878;DHT22;10101;52.204;9.910;2022-08-21T09:41:28;22.60;1.00
19878;DHT22;10101;52.204;9.910;2022-08-21T09:43:57;22.50;99.90
19878;DHT22;10101;52.204;9.910;2022-08-21T09:46:27;22.50;99.90
19878;DHT22;10101;52.204;9.910;2022-08-21T09:48:57;22.70;99.90
19878;DHT22;10101;52.204;9.910;2022-08-21T09:51:27;22.70;99.90
19878;DHT22;10101;52.204;9.910;2022-08-21T09:53:58;22.80;99.90
19878;DHT22;10101;52.204;9.910;2022-08-21T09:56:29;22.60;99.90
19878;DHT22;10101;52.204;9.910;2022-08-21T09:59:18;22.80;99.90
19878;DHT22;10101;52.204;9.910;2022-08-21T10:01:49;23.00;74.60
19878;DHT22;10101;52.204;9.910;2022-08-21T10:04:21;23.00;1.30
19878;DHT22;10101;52.204;9.910;2022-08-21T10:06:48;23.10;1.00
19878;DHT22;10101;52.204;9.910;2022-08-21T10:09:17;23.10;1.00
19878;DHT22;10101;52.204;9.910;2022-08-21T10:11:52;23.20;1.00
19878;DHT22;10101;52.204;9.910;2022-08-21T10:14:31;23.30;1.00
19878;DHT22;10101;52.204;9.910;2022-08-21T10:17:07;22.80;1.00
19878;DHT22;10101;52.204;9.910;2022-08-21T10:19:41;22.90;1.00
19878;DHT22;10101;52.204;9.910;2022-08-21T10:22:18;23.00;1.00
19878;DHT22;10101;52.204;9.910;2022-08-21T10:24:58;23.60;1.00
19878;DHT22;10101;52.204;9.910;2022-08-21T10:27:33;23.50;1.00
19878;DHT22;10101;52.204;9.910;2022-08-21T10:30:05;23.50;1.00
19878;DHT22;10101;52.204;9.910;2022-08-21T10:32:53;23.80;1.00
19878;DHT22;10101;52.204;9.910;2022-08-21T10:35:26;23.90;1.00
19878;DHT22;10101;52.204;9.910;2022-08-21T10:38:07;24.10;1.00
19878;DHT22;10101;52.204;9.910;2022-08-21T10:40:42;24.20;99.90
19878;DHT22;10101;52.204;9.910;2022-08-21T10:43:18;24.50;99.90
19878;DHT22;10101;52.204;9.910;2022-08-21T10:45:53;24.60;99.90
19878;DHT22;10101;52.204;9.910;2022-08-21T10:48:29;25.00;99.90
19878;DHT22;10101;52.204;9.910;2022-08-21T10:51:10;25.00;99.90
19878;DHT22;10101;52.204;9.910;2022-08-21T10:53:55;24.60;99.90
19878;DHT22;10101;52.204;9.910;2022-08-21T10:56:26;24.40;99.90
19878;DHT22;10101;52.204;9.910;2022-08-21T10:59:04;24.50;99.90
19878;DHT22;10101;52.204;9.910;2022-08-21T11:01:36;24.60;99.90
19878;DHT22;10101;52.204;9.910;2022-08-21T11:04:13;25.10;99.90
19878;DHT22;10101;52.204;9.910;2022-08-21T11:06:45;25.40;99.90
19878;DHT22;10101;52.204;9.910;2022-08-21T11:09:15;25.20;99.90
19878;DHT22;10101;52.204;9.910;2022-08-21T11:11:46;25.40;99.90
19878;DHT22;10101;52.204;9.910;2022-08-21T11:14:22;25.20;56.30
19878;DHT22;10101;52.204;9.910;2022-08-21T11:16:56;25.00;1.00
19878;DHT22;10101;52.204;9.910;2022-08-21T11:19:30;25.20;1.00
19878;DHT22;10101;52.204;9.910;2022-08-21T11:22:04;25.00;1.00
19878;DHT22;10101;52.204;9.910;2022-08-21T11:24:38;25.10;1.00
19878;DHT22;10101;52.204;9.910;2022-08-21T11:27:16;25.20;1.00
19878;DHT22;10101;52.204;9.910;2022-08-21T11:29:48;24.70;1.00
19878;DHT22;10101;52.204;9.910;2022-08-21T11:32:39;24.90;1.00
19878;DHT22;10101;52.204;9.910;2022-08-21T11:35:20;24.50;1.00
19878;DHT22;10101;52.204;9.910;2022-08-21T11:38:01;24.80;1.00
19878;DHT22;10101;52.204;9.910;2022-08-21T11:40:40;25.10;1.00
19878;DHT22;10101;52.204;9.910;2022-08-21T11:43:10;24.50;1.00
19878;DHT22;10101;52.204;9.910;2022-08-21T11:45:43;24.20;1.00
19878;DHT22;10101;52.204;9.910;2022-08-21T11:48:18;24.10;1.00
19878;DHT22;10101;52.204;9.910;2022-08-21T11:50:52;24.10;1.00
19878;DHT22;10101;52.204;9.910;2022-08-21T11:53:23;24.20;1.00
19878;DHT22;10101;52.204;9.910;2022-08-21T11:55:55;24.10;1.00
19878;DHT22;10101;52.204;9.910;2022-08-21T11:58:26;24.20;1.00
19878;DHT22;10101;52.204;9.910;2022-08-21T12:00:57;24.50;1.00
19878;DHT22;10101;52.204;9.910;2022-08-21T12:03:27;24.80;1.00
19878;DHT22;10101;52.204;9.910;2022-08-21T12:05:57;25.00;1.00
19878;DHT22;10101;52.204;9.910;2022-08-21T12:08:30;25.10;1.00
19878;DHT22;10101;52.204;9.910;2022-08-21T12:11:04;25.00;1.00
19878;DHT22;10101;52.204;9.910;2022-08-21T12:13:33;25.20;1.00
19878;DHT22;10101;52.204;9.910;2022-08-21T12:16:11;25.60;1.00
19878;DHT22;10101;52.204;9.910;2022-08-21T12:18:39;25.70;1.00
19878;DHT22;10101;52.204;9.910;2022-08-21T12:21:21;26.00;1.00
19878;DHT22;10101;52.204;9.910;2022-08-21T12:23:59;26.20;1.00
19878;DHT22;10101;52.204;9.910;2022-08-21T12:26:28;26.30;1.00
19878;DHT22;10101;52.204;9.910;2022-08-21T12:29:13;26.10;1.00
19878;DHT22;10101;52.204;9.910;2022-08-21T12:31:58;26.70;1.00
19878;DHT22;10101;52.204;9.910;2022-08-21T12:34:36;26.30;1.00
19878;DHT22;10101;52.204;9.910;2022-08-21T12:37:14;26.00;1.00
19878;DHT22;10101;52.204;9.910;2022-08-21T12:39:44;25.80;1.00
19878;DHT22;10101;52.204;9.910;2022-08-21T12:42:16;25.90;99.90
19878;DHT22;10101;52.204;9.910;2022-08-21T12:44:48;26.00;99.90
19878;DHT22;10101;52.204;9.910;2022-08-21T12:47:25;26.10;99.90
19878;DHT22;10101;52.204;9.910;2022-08-21T12:49:58;26.10;99.90
19878;DHT22;10101;52.204;9.910;2022-08-21T12:52:34;26.30;99.90
19878;DHT22;10101;52.204;9.910;2022-08-21T12:55:01;26.20;99.90
19878;DHT22;10101;52.204;9.910;2022-08-21T12:57:29;25.90;99.90
19878;DHT22;10101;52.204;9.910;2022-08-21T12:59:58;26.00;99.90
19878;DHT22;10101;52.204;9.910;2022-08-21T13:02:32;26.30;99.90
19878;DHT22;10101;52.204;9.910;2022-08-21T13:05:05;26.60;99.90
19878;DHT22;10101;52.204;9.910;2022-08-21T13:07:35;27.10;99.90
19878;DHT22;10101;52.204;9.910;2022-08-21T13:10:06;26.80;99.90
19878;DHT22;10101;52.204;9.910;2022-08-21T13:12:36;26.60;99.90
19878;DHT22;10101;52.204;9.910;2022-08-21T13:15:05;26.40;99.90
19878;DHT22;10101;52.204;9.910;2022-08-21T13:17:39;26.00;99.90
19878;DHT22;10101;52.204;9.910;2022-08-21T13:20:08;25.40;99.90
19878;DHT22;10101;52.204;9.910;2022-08-21T13:22:42;25.50;99.90
19878;DHT22;10101;52.204;9.910;2022-08-21T13:25:11;25.30;99.90
19878;DHT22;10101;52.204;9.910;2022-08-21T13:27:38;25.90;99.90
19878;DHT22;10101;52.204;9.910;2022-08-21T13:30:09;26.00;99.90
19878;DHT22;10101;52.204;9.910;2022-08-21T13:32:40;25.60;99.90
19878;DHT22;10101;52.204;9.910;2022-08-21T13:35:10;25.60;99.90
19878;DHT22;10101;52.204;9.910;2022-08-21T13:37:39;25.30;99.90
19878;DHT22;10101;52.204;9.910;2022-08-21T13:40:10;25.50;99.90
19878;DHT22;10101;52.204;9.910;2022-08-21T13:42:40;25.80;99.90
19878;DHT22;10101;52.204;9.910;2022-08-21T13:45:22;26.20;99.90
19878;DHT22;10101;52.204;9.910;2022-08-21T13:47:50;26.70;99.90
19878;DHT22;10101;52.204;9.910;2022-08-21T13:50:20;27.50;99.90
19878;DHT22;10101;52.204;9.910;2022-08-21T13:52:56;28.40;99.90
19878;DHT22;10101;52.204;9.910;2022-08-21T13:55:25;28.10;99.90
19878;DHT22;10101;52.204;9.910;2022-08-21T13:58:02;27.60;99.90
19878;DHT22;10101;52.204;9.910;2022-08-21T14:00:30;28.30;99.90
19878;DHT22;10101;52.204;9.910;2022-08-21T14:03:03;28.40;99.90
19878;DHT22;10101;52.204;9.910;2022-08-21T14:05:33;28.50;99.90
19878;DHT22;10101;52.204;9.910;2022-08-21T14:08:04;28.00;99.90
19878;DHT22;10101;52.204;9.910;2022-08-21T14:10:36;28.10;99.90
19878;DHT22;10101;52.204;9.910;2022-08-21T14:13:14;30.10;99.90
19878;DHT22;10101;52.204;9.910;2022-08-21T14:15:55;30.40;99.90
19878;DHT22;10101;52.204;9.910;2022-08-21T14:18:23;29.10;99.90
19878;DHT22;10101;52.204;9.910;2022-08-21T14:20:51;28.20;99.90
19878;DHT22;10101;52.204;9.910;2022-08-21T14:23:24;27.70;99.90
19878;DHT22;10101;52.204;9.910;2022-08-21T14:25:53;27.00;99.90
19878;DHT22;10101;52.204;9.910;2022-08-21T14:28:26;26.60;99.90
19878;DHT22;10101;52.204;9.910;2022-08-21T14:30:55;26.40;99.90
19878;DHT22;10101;52.204;9.910;2022-08-21T14:33:25;26.90;99.90
19878;DHT22;10101;52.204;9.910;2022-08-21T14:35:52;27.00;99.90
19878;DHT22;10101;52.204;9.910;2022-08-21T14:38:22;27.60;99.90
19878;DHT22;10101;52.204;9.910;2022-08-21T14:40:51;28.80;99.90
19878;DHT22;10101;52.204;9.910;2022-08-21T14:43:20;29.90;99.90
19878;DHT22;10101;52.204;9.910;2022-08-21T14:45:48;29.90;99.90
19878;DHT22;10101;52.204;9.910;2022-08-21T14:48:15;30.30;99.90
19878;DHT22;10101;52.204;9.910;2022-08-21T14:50:41;30.20;99.90
19878;DHT22;10101;52.204;9.910;2022-08-21T14:53:09;30.80;99.90
19878;DHT22;10101;52.204;9.910;2022-08-21T14:55:37;29.80;99.90
19878;DHT22;10101;52.204;9.910;2022-08-21T14:58:19;30.60;99.90
19878;DHT22;10101;52.204;9.910;2022-08-21T15:00:49;30.90;99.90
19878;DHT22;10101;52.204;9.910;2022-08-21T15:03:16;31.00;99.90
19878;DHT22;10101;52.204;9.910;2022-08-21T15:05:42;31.50;99.90
19878;DHT22;10101;52.204;9.910;2022-08-21T15:08:10;33.20;99.90
19878;DHT22;10101;52.204;9.910;2022-08-21T15:10:37;32.90;99.90
19878;DHT22;10101;52.204;9.910;2022-08-21T15:13:04;33.10;99.90
19878;DHT22;10101;52.204;9.910;2022-08-21T15:15:39;33.50;99.90
19878;DHT22;10101;52.204;9.910;2022-08-21T15:18:07;34.10;99.90
19878;DHT22;10101;52.204;9.910;2022-08-21T15:20:35;33.50;99.90
19878;DHT22;10101;52.204;9.910;2022-08-21T15:23:03;34.40;99.90
19878;DHT22;10101;52.204;9.910;2022-08-21T15:25:30;33.50;99.90
19878;DHT22;10101;52.204;9.910;2022-08-21T15:27:58;30.30;99.90
19878;DHT22;10101;52.204;9.910;2022-08-21T15:30:25;28.60;99.90
19878;DHT22;10101;52.204;9.910;2022-08-21T15:32:53;27.40;99.90
19878;DHT22;10101;52.204;9.910;2022-08-21T15:35:20;27.00;99.90
19878;DHT22;10101;52.204;9.910;2022-08-21T15:37:47;26.70;99.90
19878;DHT22;10101;52.204;9.910;2022-08-21T15:40:15;29.60;99.90
19878;DHT22;10101;52.204;9.910;2022-08-21T15:42:43;30.80;99.90
19878;DHT22;10101;52.204;9.910;2022-08-21T15:45:11;30.60;99.90
19878;DHT22;10101;52.204;9.910;2022-08-21T15:47:39;30.00;99.90